LXP380 SCEL-SCAR
Flight info
| Callsign | LXP380 |
|---|---|
| Flight time | 2h 15m |
| Altitude | 36000 |
| Route | DONTI5B DONTI UQ802 |
| Aircraft | A321/M-SDE3FGHIRWY/L |
Departure
| Time | 2026-05-04 03:05 |
|---|---|
| Airport | Comodoro Arturo Merino Benítez International Airport (SCEL) |
Arrival
| Time | 2026-05-04 05:20 |
|---|---|
| Airport | Chacalluta International Airport (SCAR) |
| Time | Latitude | Longitude | Altitude | Speed | Heading |
|---|---|---|---|---|---|
| 2026-05-04 02:53 | -33.40132 | -70.78823 | 1564 ft | 0 kts | 252° |
| 2026-05-04 02:55 | -33.40118 | -70.78845 | 1564 ft | 7 kts | 314° |
| 2026-05-04 02:55 | -33.40044 | -70.78865 | 1564 ft | 14 kts | 357° |
| 2026-05-04 02:55 | -33.39932 | -70.78845 | 1564 ft | 18 kts | 24° |
| 2026-05-04 02:56 | -33.39809 | -70.78779 | 1565 ft | 20 kts | 14° |
| 2026-05-04 02:56 | -33.39669 | -70.78777 | 1565 ft | 20 kts | 358° |
| 2026-05-04 02:56 | -33.39528 | -70.78781 | 1565 ft | 20 kts | 356° |
| 2026-05-04 02:56 | -33.39393 | -70.78805 | 1565 ft | 18 kts | 311° |
| 2026-05-04 02:57 | -33.39395 | -70.78946 | 1565 ft | 17 kts | 263° |
| 2026-05-04 02:57 | -33.39403 | -70.79087 | 1565 ft | 18 kts | 268° |
| 2026-05-04 02:57 | -33.39404 | -70.79236 | 1565 ft | 18 kts | 268° |
| 2026-05-04 02:57 | -33.39412 | -70.79389 | 1565 ft | 19 kts | 266° |
| 2026-05-04 02:58 | -33.39419 | -70.79551 | 1565 ft | 20 kts | 267° |
| 2026-05-04 02:58 | -33.39427 | -70.79716 | 1565 ft | 18 kts | 268° |
| 2026-05-04 02:58 | -33.39403 | -70.79793 | 1565 ft | 4 kts | 349° |
| 2026-05-04 02:58 | -33.39376 | -70.79797 | 1565 ft | 5 kts | 352° |
| 2026-05-04 02:59 | -33.39342 | -70.79829 | 1565 ft | 8 kts | 297° |
| 2026-05-04 02:59 | -33.39342 | -70.79912 | 1565 ft | 12 kts | 274° |
| 2026-05-04 02:59 | -33.39305 | -70.79953 | 1565 ft | 8 kts | 347° |
| 2026-05-04 02:59 | -33.39232 | -70.79956 | 1565 ft | 13 kts | 1° |
| 2026-05-04 03:00 | -33.39128 | -70.79962 | 1566 ft | 17 kts | 357° |
| 2026-05-04 03:00 | -33.38996 | -70.79968 | 1566 ft | 21 kts | 356° |
| 2026-05-04 03:00 | -33.38837 | -70.79979 | 1566 ft | 24 kts | 357° |
| 2026-05-04 03:00 | -33.38671 | -70.79985 | 1566 ft | 24 kts | 357° |
| 2026-05-04 03:01 | -33.38501 | -70.79994 | 1566 ft | 25 kts | 355° |
| 2026-05-04 03:01 | -33.38328 | -70.80007 | 1565 ft | 25 kts | 356° |
| 2026-05-04 03:01 | -33.38153 | -70.80016 | 1565 ft | 24 kts | 356° |
| 2026-05-04 03:01 | -33.38099 | -70.80074 | 1566 ft | 3 kts | 268° |
| 2026-05-04 03:02 | -33.38099 | -70.80102 | 1566 ft | 5 kts | 281° |
| 2026-05-04 03:02 | -33.38041 | -70.80122 | 1566 ft | 15 kts | 359° |
| 2026-05-04 03:02 | -33.37900 | -70.80132 | 1566 ft | 26 kts | 356° |
| 2026-05-04 03:02 | -33.37703 | -70.80144 | 1567 ft | 27 kts | 358° |
| 2026-05-04 03:03 | -33.37535 | -70.80153 | 1567 ft | 21 kts | 357° |
| 2026-05-04 03:03 | -33.37406 | -70.80161 | 1567 ft | 16 kts | 356° |
| 2026-05-04 03:03 | -33.37315 | -70.80168 | 1567 ft | 10 kts | 356° |
| 2026-05-04 03:03 | -33.37258 | -70.80172 | 1567 ft | 7 kts | 357° |
| 2026-05-04 03:04 | -33.37205 | -70.80175 | 1567 ft | 11 kts | 357° |
| 2026-05-04 03:04 | -33.37111 | -70.80232 | 1569 ft | 19 kts | 302° |
| 2026-05-04 03:04 | -33.37147 | -70.80357 | 1574 ft | 17 kts | 213° |
| 2026-05-04 03:04 | -33.37275 | -70.80369 | 1573 ft | 28 kts | 178° |
| 2026-05-04 03:05 | -33.37691 | -70.80348 | 1572 ft | 92 kts | 177° |
| 2026-05-04 03:05 | -33.38524 | -70.80303 | 1573 ft | 150 kts | 178° |
| 2026-05-04 03:05 | -33.39736 | -70.80226 | 1773 ft | 191 kts | 176° |
| 2026-05-04 03:05 | -33.41075 | -70.80109 | 2590 ft | 193 kts | 176° |
| 2026-05-04 03:06 | -33.42471 | -70.79978 | 3134 ft | 213 kts | 176° |
| 2026-05-04 03:06 | -33.44080 | -70.79866 | 3362 ft | 249 kts | 177° |
| 2026-05-04 03:06 | -33.45911 | -70.79749 | 3892 ft | 269 kts | 177° |
| 2026-05-04 03:06 | -33.47741 | -70.79635 | 5038 ft | 266 kts | 177° |
| 2026-05-04 03:07 | -33.49590 | -70.79886 | 5908 ft | 271 kts | 204° |
| 2026-05-04 03:07 | -33.51025 | -70.81305 | 6759 ft | 273 kts | 239° |
| 2026-05-04 03:07 | -33.51579 | -70.83467 | 7558 ft | 277 kts | 269° |
| 2026-05-04 03:07 | -33.51139 | -70.85698 | 8350 ft | 280 kts | 299° |
| 2026-05-04 03:08 | -33.49848 | -70.87446 | 9096 ft | 285 kts | 326° |
| 2026-05-04 03:08 | -33.48082 | -70.88550 | 9842 ft | 289 kts | 335° |
| 2026-05-04 03:08 | -33.46226 | -70.89537 | 10594 ft | 293 kts | 335° |
| 2026-05-04 03:08 | -33.44356 | -70.90594 | 10993 ft | 311 kts | 333° |
| 2026-05-04 03:09 | -33.42318 | -70.91804 | 11075 ft | 339 kts | 333° |
| 2026-05-04 03:09 | -33.40167 | -70.93057 | 11854 ft | 337 kts | 334° |
| 2026-05-04 03:09 | -33.38064 | -70.94258 | 12841 ft | 337 kts | 334° |
| 2026-05-04 03:09 | -33.35912 | -70.95497 | 13370 ft | 345 kts | 334° |
| 2026-05-04 03:10 | -33.33789 | -70.96729 | 14186 ft | 344 kts | 334° |
| 2026-05-04 03:10 | -33.31602 | -70.97992 | 14756 ft | 351 kts | 334° |
| 2026-05-04 03:10 | -33.29376 | -70.99272 | 15332 ft | 358 kts | 334° |
| 2026-05-04 03:10 | -33.27123 | -71.00569 | 16021 ft | 359 kts | 334° |
| 2026-05-04 03:11 | -33.24876 | -71.01862 | 16761 ft | 358 kts | 334° |
| 2026-05-04 03:11 | -33.22631 | -71.03155 | 17213 ft | 366 kts | 334° |
| 2026-05-04 03:11 | -33.20506 | -71.04378 | 17678 ft | 371 kts | 334° |
| 2026-05-04 03:11 | -33.18170 | -71.05720 | 18321 ft | 372 kts | 334° |
| 2026-05-04 03:12 | -33.16627 | -71.06606 | 18757 ft | 371 kts | 334° |
| 2026-05-04 03:12 | -33.13524 | -71.08387 | 19446 ft | 375 kts | 334° |
| 2026-05-04 03:12 | -33.11148 | -71.09750 | 19925 ft | 379 kts | 334° |
| 2026-05-04 03:12 | -33.09567 | -71.10657 | 20189 ft | 383 kts | 334° |
| 2026-05-04 03:13 | -33.07158 | -71.12039 | 20745 ft | 383 kts | 334° |
| 2026-05-04 03:13 | -33.04757 | -71.13412 | 21232 ft | 385 kts | 334° |
| 2026-05-04 03:13 | -33.02324 | -71.14805 | 21649 ft | 387 kts | 334° |
| 2026-05-04 03:13 | -32.99921 | -71.16180 | 22117 ft | 389 kts | 334° |
| 2026-05-04 03:14 | -32.97461 | -71.17587 | 22487 ft | 392 kts | 334° |
| 2026-05-04 03:14 | -32.94910 | -71.18795 | 22839 ft | 395 kts | 348° |
| 2026-05-04 03:14 | -32.92161 | -71.19095 | 23233 ft | 398 kts | 358° |
| 2026-05-04 03:14 | -32.89419 | -71.19134 | 23621 ft | 400 kts | 360° |
| 2026-05-04 03:15 | -32.86628 | -71.19141 | 24023 ft | 401 kts | 359° |
| 2026-05-04 03:15 | -32.83825 | -71.19201 | 24362 ft | 404 kts | 358° |
| 2026-05-04 03:15 | -32.81001 | -71.19285 | 24679 ft | 407 kts | 358° |
| 2026-05-04 03:15 | -32.78156 | -71.19337 | 25003 ft | 409 kts | 359° |
| 2026-05-04 03:16 | -32.75336 | -71.19371 | 25681 ft | 399 kts | 359° |
| 2026-05-04 03:16 | -32.72573 | -71.19420 | 26162 ft | 398 kts | 359° |
| 2026-05-04 03:16 | -32.69771 | -71.19482 | 26297 ft | 405 kts | 359° |
| 2026-05-04 03:16 | -32.66948 | -71.19534 | 26642 ft | 405 kts | 359° |
| 2026-05-04 03:17 | -32.64153 | -71.19580 | 26918 ft | 407 kts | 359° |
| 2026-05-04 03:17 | -32.61309 | -71.19632 | 27161 ft | 410 kts | 359° |
| 2026-05-04 03:17 | -32.58434 | -71.19687 | 27362 ft | 414 kts | 359° |
| 2026-05-04 03:17 | -32.55553 | -71.19739 | 27718 ft | 413 kts | 359° |
| 2026-05-04 03:18 | -32.52702 | -71.19790 | 27949 ft | 416 kts | 359° |
| 2026-05-04 03:18 | -32.49753 | -71.19845 | 27841 ft | 427 kts | 359° |
| 2026-05-04 03:18 | -32.46801 | -71.19899 | 28246 ft | 425 kts | 359° |
| 2026-05-04 03:18 | -32.43831 | -71.19953 | 28584 ft | 421 kts | 359° |
| 2026-05-04 03:19 | -32.40944 | -71.20004 | 29305 ft | 411 kts | 359° |
| 2026-05-04 03:19 | -32.35186 | -71.20132 | 28791 ft | 423 kts | 350° |
| 2026-05-04 03:19 | -32.32220 | -71.20166 | 29011 ft | 425 kts | 351° |
| 2026-05-04 03:20 | -32.29267 | -71.20188 | 29444 ft | 422 kts | 350° |
| 2026-05-04 03:20 | -32.26333 | -71.20259 | 29759 ft | 421 kts | 349° |
| 2026-05-04 03:20 | -32.23391 | -71.20340 | 30055 ft | 422 kts | 350° |
| 2026-05-04 03:20 | -32.20485 | -71.20386 | 30350 ft | 422 kts | 350° |
| 2026-05-04 03:21 | -32.17542 | -71.20421 | 30639 ft | 422 kts | 350° |
| 2026-05-04 03:21 | -32.14604 | -71.20475 | 30914 ft | 421 kts | 349° |
| 2026-05-04 03:21 | -32.11671 | -71.20539 | 31182 ft | 421 kts | 349° |
| 2026-05-04 03:21 | -32.08735 | -71.20593 | 31414 ft | 421 kts | 350° |
| 2026-05-04 03:22 | -32.05850 | -71.20639 | 31653 ft | 420 kts | 350° |
| 2026-05-04 03:22 | -32.02919 | -71.20690 | 31904 ft | 420 kts | 349° |
| 2026-05-04 03:22 | -31.99996 | -71.20747 | 32095 ft | 419 kts | 349° |
| 2026-05-04 03:22 | -31.97069 | -71.20801 | 32199 ft | 422 kts | 349° |
| 2026-05-04 03:23 | -31.94096 | -71.20859 | 32038 ft | 432 kts | 349° |
| 2026-05-04 03:23 | -31.91054 | -71.20918 | 31875 ft | 442 kts | 350° |
| 2026-05-04 03:23 | -31.87974 | -71.20969 | 31795 ft | 451 kts | 351° |
| 2026-05-04 03:23 | -31.84837 | -71.21016 | 32067 ft | 449 kts | 351° |
| 2026-05-04 03:24 | -31.81716 | -71.21067 | 32386 ft | 447 kts | 350° |
| 2026-05-04 03:24 | -31.78601 | -71.21130 | 32620 ft | 447 kts | 351° |
| 2026-05-04 03:24 | -31.75466 | -71.20983 | 32863 ft | 451 kts | 355° |
| 2026-05-04 03:24 | -31.72325 | -71.20771 | 33107 ft | 450 kts | 354° |
| 2026-05-04 03:25 | -31.69230 | -71.20593 | 33308 ft | 450 kts | 354° |
| 2026-05-04 03:25 | -31.66100 | -71.20419 | 33533 ft | 449 kts | 354° |
| 2026-05-04 03:25 | -31.62967 | -71.20225 | 33750 ft | 449 kts | 354° |
| 2026-05-04 03:25 | -31.59869 | -71.20022 | 34254 ft | 439 kts | 354° |
| 2026-05-04 03:26 | -31.56861 | -71.19832 | 34865 ft | 425 kts | 353° |
| 2026-05-04 03:26 | -31.50876 | -71.19504 | 34726 ft | 438 kts | 353° |
| 2026-05-04 03:26 | -31.47842 | -71.19316 | 34590 ft | 446 kts | 354° |
| 2026-05-04 03:27 | -31.44745 | -71.19110 | 34824 ft | 441 kts | 354° |
| 2026-05-04 03:27 | -31.41714 | -71.18914 | 35337 ft | 431 kts | 353° |
| 2026-05-04 03:27 | -31.38708 | -71.18748 | 35430 ft | 431 kts | 352° |
| 2026-05-04 03:27 | -31.35707 | -71.18581 | 35596 ft | 430 kts | 353° |
| 2026-05-04 03:28 | -31.32719 | -71.18393 | 35741 ft | 430 kts | 353° |
| 2026-05-04 03:28 | -31.26790 | -71.18028 | 36059 ft | 423 kts | 352° |
| 2026-05-04 03:29 | -31.20874 | -71.17684 | 35935 ft | 431 kts | 352° |
| 2026-05-04 03:29 | -31.14824 | -71.17313 | 35830 ft | 437 kts | 352° |
| 2026-05-04 03:30 | -31.08733 | -71.16953 | 35734 ft | 444 kts | 353° |
| 2026-05-04 03:30 | -31.02490 | -71.16575 | 35625 ft | 452 kts | 353° |
| 2026-05-04 03:31 | -30.96140 | -71.16197 | 35508 ft | 458 kts | 353° |
| 2026-05-04 03:31 | -30.89773 | -71.15804 | 35381 ft | 458 kts | 353° |
| 2026-05-04 03:32 | -30.83436 | -71.15422 | 35261 ft | 458 kts | 353° |
| 2026-05-04 03:32 | -30.77057 | -71.15034 | 35141 ft | 458 kts | 353° |
| 2026-05-04 03:33 | -30.70685 | -71.14654 | 35022 ft | 459 kts | 353° |
| 2026-05-04 03:33 | -30.64339 | -71.14276 | 34904 ft | 458 kts | 354° |
| 2026-05-04 03:34 | -30.57963 | -71.13894 | 34790 ft | 459 kts | 354° |
| 2026-05-04 03:34 | -30.51563 | -71.13513 | 34663 ft | 459 kts | 354° |
| 2026-05-04 03:35 | -30.45202 | -71.13134 | 34547 ft | 460 kts | 354° |
| 2026-05-04 03:35 | -30.38806 | -71.12756 | 34428 ft | 460 kts | 354° |
| 2026-05-04 03:36 | -30.32412 | -71.12385 | 34311 ft | 460 kts | 354° |
| 2026-05-04 03:36 | -30.26002 | -71.12009 | 34191 ft | 461 kts | 354° |
| 2026-05-04 03:37 | -30.19584 | -71.11374 | 34071 ft | 466 kts | 357° |
| 2026-05-04 03:37 | -30.13109 | -71.10715 | 33938 ft | 467 kts | 357° |
| 2026-05-04 03:38 | -30.06632 | -71.09996 | 33802 ft | 467 kts | 357° |
| 2026-05-04 03:38 | -30.00136 | -71.09314 | 33605 ft | 474 kts | 357° |
| 2026-05-04 03:39 | -29.93522 | -71.08596 | 33538 ft | 479 kts | 357° |
| 2026-05-04 03:39 | -29.90269 | -71.08239 | 33419 ft | 467 kts | 357° |
| 2026-05-04 03:39 | -29.87054 | -71.07894 | 33313 ft | 461 kts | 357° |
| 2026-05-04 03:39 | -29.83885 | -71.07563 | 33157 ft | 456 kts | 356° |
| 2026-05-04 03:40 | -29.80736 | -71.07235 | 33084 ft | 460 kts | 357° |
| 2026-05-04 03:40 | -29.74402 | -71.06543 | 33268 ft | 454 kts | 356° |
| 2026-05-04 03:40 | -29.71246 | -71.06212 | 33411 ft | 456 kts | 356° |
| 2026-05-04 03:41 | -29.68082 | -71.05880 | 33684 ft | 455 kts | 356° |
| 2026-05-04 03:41 | -29.64977 | -71.05544 | 33986 ft | 452 kts | 356° |
| 2026-05-04 03:41 | -29.61828 | -71.05208 | 33969 ft | 458 kts | 356° |
| 2026-05-04 03:42 | -29.55441 | -71.04532 | 33837 ft | 462 kts | 356° |
| 2026-05-04 03:42 | -29.48962 | -71.03844 | 33709 ft | 473 kts | 356° |
| 2026-05-04 03:43 | -29.42343 | -71.02979 | 33746 ft | 481 kts | 360° |
| 2026-05-04 03:43 | -29.39069 | -71.02459 | 33982 ft | 480 kts | 359° |
| 2026-05-04 03:43 | -29.35737 | -71.01969 | 33944 ft | 485 kts | 359° |
| 2026-05-04 03:44 | -29.29024 | -71.00921 | 33787 ft | 485 kts | 360° |
| 2026-05-04 03:44 | -29.22358 | -71.00183 | 33644 ft | 479 kts | 356° |
| 2026-05-04 03:45 | -29.15747 | -70.99525 | 33495 ft | 478 kts | 356° |
| 2026-05-04 03:45 | -29.09102 | -70.98926 | 33343 ft | 477 kts | 356° |
| 2026-05-04 03:46 | -29.02536 | -70.98292 | 33094 ft | 466 kts | 356° |
| 2026-05-04 03:46 | -28.99343 | -70.97983 | 32743 ft | 452 kts | 356° |
| 2026-05-04 03:46 | -28.96212 | -70.97704 | 32677 ft | 452 kts | 356° |
| 2026-05-04 03:47 | -28.89833 | -70.97122 | 32553 ft | 464 kts | 357° |
| 2026-05-04 03:47 | -28.83373 | -70.96505 | 32350 ft | 474 kts | 356° |
| 2026-05-04 03:48 | -28.76867 | -70.95899 | 32230 ft | 463 kts | 357° |
| 2026-05-04 03:48 | -28.70475 | -70.95303 | 32228 ft | 457 kts | 356° |
| 2026-05-04 03:49 | -28.64143 | -70.94720 | 32254 ft | 460 kts | 356° |
| 2026-05-04 03:49 | -28.57737 | -70.94119 | 32277 ft | 460 kts | 356° |
| 2026-05-04 03:50 | -28.51380 | -70.93532 | 32300 ft | 459 kts | 356° |
| 2026-05-04 03:50 | -28.44998 | -70.92897 | 32322 ft | 460 kts | 358° |
| 2026-05-04 03:51 | -28.38618 | -70.92210 | 32345 ft | 460 kts | 357° |
| 2026-05-04 03:51 | -28.32265 | -70.91568 | 32366 ft | 460 kts | 357° |
| 2026-05-04 03:52 | -28.25878 | -70.90894 | 32382 ft | 460 kts | 357° |
| 2026-05-04 03:52 | -28.19526 | -70.90218 | 32402 ft | 460 kts | 358° |
| 2026-05-04 03:53 | -28.13148 | -70.89537 | 32427 ft | 460 kts | 358° |
| 2026-05-04 03:53 | -28.06755 | -70.88858 | 32446 ft | 461 kts | 358° |
| 2026-05-04 03:54 | -28.00365 | -70.88177 | 32468 ft | 461 kts | 358° |
| 2026-05-04 03:54 | -27.93972 | -70.87499 | 32489 ft | 460 kts | 358° |
| 2026-05-04 03:55 | -27.87634 | -70.86827 | 32519 ft | 460 kts | 358° |
| 2026-05-04 03:55 | -27.81257 | -70.86151 | 32536 ft | 460 kts | 358° |
| 2026-05-04 03:56 | -27.74870 | -70.85475 | 32553 ft | 459 kts | 358° |
| 2026-05-04 03:56 | -27.68539 | -70.84806 | 32570 ft | 459 kts | 358° |
| 2026-05-04 03:57 | -27.62181 | -70.84135 | 32595 ft | 459 kts | 358° |
| 2026-05-04 03:57 | -27.55814 | -70.83464 | 32610 ft | 458 kts | 358° |
| 2026-05-04 03:58 | -27.46313 | -70.82463 | 32644 ft | 457 kts | 358° |
| 2026-05-04 03:58 | -27.40006 | -70.81801 | 32663 ft | 456 kts | 358° |
| 2026-05-04 03:59 | -27.33677 | -70.81136 | 32684 ft | 456 kts | 359° |
| 2026-05-04 03:59 | -27.27348 | -70.80472 | 32707 ft | 456 kts | 359° |
| 2026-05-04 04:00 | -27.22089 | -70.79921 | 32730 ft | 456 kts | 359° |
| 2026-05-04 04:00 | -27.14742 | -70.79152 | 32750 ft | 455 kts | 359° |
| 2026-05-04 04:01 | -27.09492 | -70.78603 | 32766 ft | 455 kts | 359° |
| 2026-05-04 04:01 | -27.03179 | -70.77944 | 32796 ft | 454 kts | 359° |
| 2026-05-04 04:02 | -26.96886 | -70.77287 | 32825 ft | 453 kts | 359° |
| 2026-05-04 04:02 | -26.90602 | -70.76633 | 32845 ft | 454 kts | 359° |
| 2026-05-04 04:03 | -26.84333 | -70.75980 | 32876 ft | 455 kts | 359° |
| 2026-05-04 04:03 | -26.78021 | -70.75324 | 32891 ft | 455 kts | 359° |
| 2026-05-04 04:04 | -26.71741 | -70.74672 | 32916 ft | 455 kts | 359° |
| 2026-05-04 04:04 | -26.65418 | -70.73921 | 32938 ft | 458 kts | 3° |
| 2026-05-04 04:05 | -26.59148 | -70.72835 | 32970 ft | 458 kts | 2° |
| 2026-05-04 04:05 | -26.52834 | -70.71768 | 32991 ft | 458 kts | 2° |
| 2026-05-04 04:06 | -26.46564 | -70.70688 | 33016 ft | 457 kts | 2° |
| 2026-05-04 04:06 | -26.40267 | -70.69982 | 33047 ft | 453 kts | 358° |
| 2026-05-04 04:07 | -26.33962 | -70.69420 | 33071 ft | 454 kts | 358° |
| 2026-05-04 04:07 | -26.27699 | -70.68870 | 33100 ft | 454 kts | 358° |
| 2026-05-04 04:08 | -26.21387 | -70.68316 | 33129 ft | 455 kts | 358° |
| 2026-05-04 04:08 | -26.15070 | -70.67760 | 33147 ft | 454 kts | 358° |
| 2026-05-04 04:09 | -26.08802 | -70.67211 | 33176 ft | 453 kts | 358° |
| 2026-05-04 04:09 | -26.02494 | -70.66657 | 33204 ft | 453 kts | 358° |
| 2026-05-04 04:10 | -25.96208 | -70.66108 | 33231 ft | 453 kts | 358° |
| 2026-05-04 04:10 | -25.89947 | -70.65559 | 33256 ft | 453 kts | 358° |
| 2026-05-04 04:11 | -25.83657 | -70.65010 | 33282 ft | 452 kts | 358° |
| 2026-05-04 04:11 | -25.77372 | -70.64462 | 33309 ft | 452 kts | 358° |
| 2026-05-04 04:12 | -25.71138 | -70.63918 | 33326 ft | 452 kts | 358° |
| 2026-05-04 04:12 | -25.64869 | -70.63373 | 33357 ft | 452 kts | 358° |
| 2026-05-04 04:13 | -25.58574 | -70.62825 | 33381 ft | 452 kts | 358° |
| 2026-05-04 04:13 | -25.52322 | -70.62281 | 33405 ft | 453 kts | 358° |
| 2026-05-04 04:14 | -25.46022 | -70.61734 | 33424 ft | 452 kts | 358° |
| 2026-05-04 04:14 | -25.39776 | -70.61193 | 33463 ft | 453 kts | 358° |
| 2026-05-04 04:15 | -25.33467 | -70.60649 | 33476 ft | 453 kts | 359° |
| 2026-05-04 04:15 | -25.27208 | -70.60108 | 33503 ft | 453 kts | 358° |
| 2026-05-04 04:16 | -25.20915 | -70.59566 | 33530 ft | 453 kts | 359° |
| 2026-05-04 04:16 | -25.14609 | -70.59022 | 33544 ft | 454 kts | 359° |
| 2026-05-04 04:17 | -25.08306 | -70.58480 | 33572 ft | 454 kts | 359° |
| 2026-05-04 04:17 | -25.02038 | -70.57941 | 33595 ft | 454 kts | 359° |
| 2026-05-04 04:18 | -24.95719 | -70.57399 | 33621 ft | 454 kts | 359° |
| 2026-05-04 04:18 | -24.89444 | -70.56860 | 33642 ft | 455 kts | 359° |
| 2026-05-04 04:19 | -24.83121 | -70.56319 | 33677 ft | 456 kts | 359° |
| 2026-05-04 04:19 | -24.76795 | -70.56070 | 33703 ft | 452 kts | 353° |
| 2026-05-04 04:20 | -24.70533 | -70.56122 | 33727 ft | 453 kts | 354° |
| 2026-05-04 04:20 | -24.64229 | -70.56147 | 33746 ft | 451 kts | 353° |
| 2026-05-04 04:21 | -24.57951 | -70.56197 | 33772 ft | 450 kts | 354° |
| 2026-05-04 04:21 | -24.51714 | -70.56228 | 33814 ft | 451 kts | 353° |
| 2026-05-04 04:22 | -24.45428 | -70.56272 | 33828 ft | 450 kts | 353° |
| 2026-05-04 04:22 | -24.39182 | -70.56307 | 33861 ft | 450 kts | 353° |
| 2026-05-04 04:23 | -24.32905 | -70.56348 | 33891 ft | 449 kts | 353° |
| 2026-05-04 04:23 | -24.26672 | -70.56385 | 33924 ft | 450 kts | 353° |
| 2026-05-04 04:24 | -24.20423 | -70.56424 | 33959 ft | 451 kts | 353° |
| 2026-05-04 04:24 | -24.14145 | -70.56462 | 33987 ft | 451 kts | 353° |
| 2026-05-04 04:25 | -24.07850 | -70.56501 | 33956 ft | 452 kts | 353° |
| 2026-05-04 04:25 | -24.01565 | -70.56539 | 33811 ft | 450 kts | 353° |
| 2026-05-04 04:26 | -23.95348 | -70.56577 | 33683 ft | 449 kts | 353° |
| 2026-05-04 04:26 | -23.89078 | -70.56617 | 33555 ft | 449 kts | 354° |
| 2026-05-04 04:27 | -23.82860 | -70.56654 | 33433 ft | 450 kts | 354° |
| 2026-05-04 04:27 | -23.76588 | -70.56680 | 33306 ft | 449 kts | 354° |
| 2026-05-04 04:28 | -23.70308 | -70.56624 | 33204 ft | 452 kts | 355° |
| 2026-05-04 04:28 | -23.64042 | -70.56612 | 33081 ft | 452 kts | 355° |
| 2026-05-04 04:29 | -23.57739 | -70.56576 | 32961 ft | 451 kts | 355° |
| 2026-05-04 04:29 | -23.51492 | -70.56554 | 32837 ft | 451 kts | 355° |
| 2026-05-04 04:30 | -23.45207 | -70.56524 | 32721 ft | 453 kts | 355° |
| 2026-05-04 04:30 | -23.38898 | -70.56500 | 32567 ft | 454 kts | 355° |
| 2026-05-04 04:31 | -23.35725 | -70.56484 | 32365 ft | 454 kts | 355° |
| 2026-05-04 04:31 | -23.32570 | -70.56469 | 32286 ft | 451 kts | 355° |
| 2026-05-04 04:31 | -23.26317 | -70.56446 | 32154 ft | 452 kts | 355° |
| 2026-05-04 04:32 | -23.20010 | -70.56416 | 32020 ft | 453 kts | 355° |
| 2026-05-04 04:32 | -23.13695 | -70.56390 | 31891 ft | 453 kts | 356° |
| 2026-05-04 04:33 | -23.07428 | -70.56363 | 31861 ft | 453 kts | 356° |
| 2026-05-04 04:33 | -23.01110 | -70.56336 | 31833 ft | 454 kts | 356° |
| 2026-05-04 04:34 | -22.94785 | -70.56309 | 31815 ft | 454 kts | 356° |
| 2026-05-04 04:34 | -22.88464 | -70.56282 | 31838 ft | 454 kts | 356° |
| 2026-05-04 04:35 | -22.82163 | -70.56161 | 31859 ft | 456 kts | 357° |
| 2026-05-04 04:35 | -22.75808 | -70.56032 | 31882 ft | 457 kts | 356° |
| 2026-05-04 04:36 | -22.69438 | -70.55918 | 31903 ft | 457 kts | 356° |
| 2026-05-04 04:36 | -22.63072 | -70.55790 | 31928 ft | 457 kts | 356° |
| 2026-05-04 04:37 | -22.50355 | -70.55549 | 31969 ft | 457 kts | 356° |
| 2026-05-04 04:38 | -22.44033 | -70.55431 | 31982 ft | 457 kts | 356° |
| 2026-05-04 04:38 | -22.37663 | -70.55308 | 32013 ft | 457 kts | 356° |
| 2026-05-04 04:39 | -22.31275 | -70.55189 | 31929 ft | 459 kts | 356° |
| 2026-05-04 04:39 | -22.24915 | -70.55065 | 31788 ft | 456 kts | 356° |
| 2026-05-04 04:40 | -22.18567 | -70.54948 | 31666 ft | 456 kts | 357° |
| 2026-05-04 04:40 | -22.12254 | -70.54826 | 31540 ft | 456 kts | 357° |
| 2026-05-04 04:41 | -22.05902 | -70.54707 | 31414 ft | 456 kts | 357° |
| 2026-05-04 04:41 | -21.99549 | -70.54586 | 31285 ft | 456 kts | 357° |
| 2026-05-04 04:42 | -21.93222 | -70.54467 | 31163 ft | 457 kts | 358° |
| 2026-05-04 04:42 | -21.86848 | -70.54355 | 31040 ft | 457 kts | 357° |
| 2026-05-04 04:43 | -21.80480 | -70.54353 | 30917 ft | 457 kts | 357° |
| 2026-05-04 04:43 | -21.74139 | -70.54299 | 30800 ft | 457 kts | 358° |
| 2026-05-04 04:44 | -21.67792 | -70.54271 | 31026 ft | 456 kts | 357° |
| 2026-05-04 04:44 | -21.64603 | -70.54255 | 31203 ft | 459 kts | 357° |
| 2026-05-04 04:44 | -21.61441 | -70.54233 | 31382 ft | 460 kts | 356° |
| 2026-05-04 04:45 | -21.58224 | -70.54211 | 31553 ft | 460 kts | 356° |
| 2026-05-04 04:45 | -21.55017 | -70.54195 | 31734 ft | 460 kts | 356° |
| 2026-05-04 04:45 | -21.51807 | -70.54179 | 31915 ft | 460 kts | 356° |
| 2026-05-04 04:47 | -21.32712 | -70.54069 | 32999 ft | 456 kts | 355° |
| 2026-05-04 04:47 | -21.29542 | -70.54051 | 33192 ft | 455 kts | 354° |
| 2026-05-04 04:47 | -21.27445 | -70.54039 | 33317 ft | 455 kts | 354° |
| 2026-05-04 04:47 | -21.23241 | -70.54014 | 33563 ft | 454 kts | 354° |
| 2026-05-04 04:48 | -21.21147 | -70.54002 | 33692 ft | 453 kts | 354° |
| 2026-05-04 04:49 | -21.08535 | -70.53930 | 33826 ft | 449 kts | 354° |
| 2026-05-04 04:49 | -21.05406 | -70.53911 | 33759 ft | 447 kts | 354° |
| 2026-05-04 04:49 | -20.99217 | -70.53879 | 33643 ft | 446 kts | 354° |
| 2026-05-04 04:50 | -20.93005 | -70.53843 | 33715 ft | 447 kts | 354° |
| 2026-05-04 04:50 | -20.86773 | -70.53808 | 33788 ft | 447 kts | 354° |
| 2026-05-04 04:51 | -20.80538 | -70.53772 | 33868 ft | 447 kts | 354° |
| 2026-05-04 04:51 | -20.74336 | -70.53737 | 33947 ft | 447 kts | 354° |
| 2026-05-04 04:52 | -20.68089 | -70.53701 | 34015 ft | 447 kts | 354° |
| 2026-05-04 04:52 | -20.61894 | -70.53666 | 33853 ft | 446 kts | 354° |
| 2026-05-04 04:53 | -20.55696 | -70.53631 | 33891 ft | 444 kts | 354° |
| 2026-05-04 04:53 | -20.49544 | -70.53596 | 33978 ft | 445 kts | 354° |
| 2026-05-04 04:54 | -20.43334 | -70.53560 | 34009 ft | 445 kts | 354° |
| 2026-05-04 04:54 | -20.37165 | -70.53525 | 34022 ft | 445 kts | 354° |
| 2026-05-04 04:55 | -20.30961 | -70.53489 | 34040 ft | 445 kts | 354° |
| 2026-05-04 04:55 | -20.24764 | -70.53454 | 34065 ft | 445 kts | 354° |
| 2026-05-04 04:56 | -20.18599 | -70.53419 | 33759 ft | 441 kts | 355° |
| 2026-05-04 04:56 | -20.15517 | -70.53401 | 32625 ft | 445 kts | 355° |
| 2026-05-04 04:56 | -20.12398 | -70.53387 | 31607 ft | 449 kts | 356° |
| 2026-05-04 04:57 | -20.09278 | -70.53366 | 30784 ft | 446 kts | 356° |
| 2026-05-04 04:57 | -20.06203 | -70.53347 | 30017 ft | 444 kts | 357° |
| 2026-05-04 04:57 | -20.03143 | -70.53327 | 29428 ft | 435 kts | 357° |
| 2026-05-04 04:57 | -20.00105 | -70.53313 | 28452 ft | 435 kts | 357° |
| 2026-05-04 04:58 | -19.97137 | -70.53521 | 28118 ft | 418 kts | 351° |
| 2026-05-04 04:58 | -19.94297 | -70.53883 | 27357 ft | 415 kts | 350° |
| 2026-05-04 04:58 | -19.91411 | -70.54264 | 26352 ft | 420 kts | 351° |
| 2026-05-04 04:58 | -19.88553 | -70.54612 | 26063 ft | 405 kts | 351° |
| 2026-05-04 04:59 | -19.85798 | -70.54940 | 25641 ft | 395 kts | 351° |
| 2026-05-04 04:59 | -19.83048 | -70.55287 | 24776 ft | 399 kts | 351° |
| 2026-05-04 04:59 | -19.80271 | -70.55641 | 23930 ft | 403 kts | 351° |
| 2026-05-04 04:59 | -19.77476 | -70.55918 | 23043 ft | 405 kts | 0° |
| 2026-05-04 05:00 | -19.74788 | -70.55283 | 22628 ft | 396 kts | 21° |
| 2026-05-04 05:00 | -19.72358 | -70.54025 | 22448 ft | 380 kts | 27° |
| 2026-05-04 05:00 | -19.67679 | -70.51485 | 21000 ft | 379 kts | 22° |
| 2026-05-04 05:01 | -19.65212 | -70.50497 | 20274 ft | 378 kts | 17° |
| 2026-05-04 05:01 | -19.62682 | -70.49871 | 19519 ft | 378 kts | 7° |
| 2026-05-04 05:01 | -19.60048 | -70.49686 | 18766 ft | 379 kts | 0° |
| 2026-05-04 05:01 | -19.57399 | -70.49664 | 17950 ft | 381 kts | 0° |
| 2026-05-04 05:02 | -19.54746 | -70.49532 | 17105 ft | 382 kts | 5° |
| 2026-05-04 05:02 | -19.52148 | -70.49215 | 16870 ft | 365 kts | 7° |
| 2026-05-04 05:02 | -19.49709 | -70.48953 | 16719 ft | 348 kts | 5° |
| 2026-05-04 05:02 | -19.47317 | -70.48780 | 16215 ft | 343 kts | 4° |
| 2026-05-04 05:03 | -19.44906 | -70.48598 | 15421 ft | 349 kts | 5° |
| 2026-05-04 05:03 | -19.42464 | -70.48370 | 14704 ft | 352 kts | 6° |
| 2026-05-04 05:04 | -19.35199 | -70.47739 | 13361 ft | 333 kts | 6° |
| 2026-05-04 05:04 | -19.32932 | -70.47540 | 12800 ft | 331 kts | 6° |
| 2026-05-04 05:04 | -19.30621 | -70.47339 | 12138 ft | 334 kts | 6° |
| 2026-05-04 05:06 | -19.15210 | -70.46000 | 9515 ft | 297 kts | 6° |
| 2026-05-04 05:06 | -19.13187 | -70.45826 | 9205 ft | 295 kts | 6° |
| 2026-05-04 05:06 | -19.11139 | -70.45648 | 8896 ft | 294 kts | 6° |
| 2026-05-04 05:07 | -19.09092 | -70.45470 | 8580 ft | 294 kts | 6° |
| 2026-05-04 05:07 | -19.07060 | -70.45294 | 8277 ft | 293 kts | 6° |
| 2026-05-04 05:07 | -19.05029 | -70.45118 | 7973 ft | 292 kts | 5° |
| 2026-05-04 05:09 | -18.89514 | -70.43774 | 5755 ft | 260 kts | 4° |
| 2026-05-04 05:09 | -18.87708 | -70.43618 | 5528 ft | 259 kts | 5° |
| 2026-05-04 05:10 | -18.85907 | -70.43462 | 5298 ft | 260 kts | 4° |
| 2026-05-04 05:10 | -18.84104 | -70.43306 | 5085 ft | 260 kts | 5° |
| 2026-05-04 05:10 | -18.82321 | -70.43151 | 4862 ft | 252 kts | 4° |
| 2026-05-04 05:10 | -18.80613 | -70.43004 | 4675 ft | 240 kts | 4° |
| 2026-05-04 05:11 | -18.79006 | -70.42864 | 4521 ft | 229 kts | 5° |
| 2026-05-04 05:11 | -18.77445 | -70.42730 | 4439 ft | 221 kts | 5° |
| 2026-05-04 05:11 | -18.75922 | -70.42598 | 4322 ft | 218 kts | 5° |
| 2026-05-04 05:11 | -18.74420 | -70.42468 | 4209 ft | 216 kts | 5° |
| 2026-05-04 05:12 | -18.72922 | -70.42339 | 4095 ft | 215 kts | 5° |
| 2026-05-04 05:12 | -18.71429 | -70.42210 | 3985 ft | 214 kts | 5° |
| 2026-05-04 05:12 | -18.69967 | -70.42084 | 3899 ft | 213 kts | 5° |
| 2026-05-04 05:12 | -18.68526 | -70.41960 | 3807 ft | 202 kts | 5° |
| 2026-05-04 05:13 | -18.67147 | -70.41840 | 3856 ft | 198 kts | 5° |
| 2026-05-04 05:13 | -18.65790 | -70.41723 | 3921 ft | 193 kts | 5° |
| 2026-05-04 05:13 | -18.64442 | -70.41607 | 3986 ft | 193 kts | 5° |
| 2026-05-04 05:13 | -18.63107 | -70.41492 | 4015 ft | 193 kts | 5° |
| 2026-05-04 05:14 | -18.61771 | -70.41377 | 3960 ft | 192 kts | 5° |
| 2026-05-04 05:14 | -18.60472 | -70.41264 | 3794 ft | 186 kts | 5° |
| 2026-05-04 05:14 | -18.59198 | -70.41154 | 3595 ft | 181 kts | 5° |
| 2026-05-04 05:14 | -18.57945 | -70.41046 | 3484 ft | 179 kts | 5° |
| 2026-05-04 05:15 | -18.56709 | -70.40940 | 3473 ft | 179 kts | 5° |
| 2026-05-04 05:15 | -18.55462 | -70.40832 | 3471 ft | 178 kts | 5° |
| 2026-05-04 05:15 | -18.54228 | -70.40726 | 3373 ft | 182 kts | 5° |
| 2026-05-04 05:15 | -18.52991 | -70.40547 | 3168 ft | 178 kts | 16° |
| 2026-05-04 05:16 | -18.51821 | -70.40102 | 2971 ft | 177 kts | 20° |
| 2026-05-04 05:16 | -18.50693 | -70.39676 | 2781 ft | 170 kts | 19° |
| 2026-05-04 05:16 | -18.49578 | -70.39274 | 2554 ft | 165 kts | 19° |
| 2026-05-04 05:16 | -18.48534 | -70.38892 | 2335 ft | 153 kts | 19° |
| 2026-05-04 05:17 | -18.47537 | -70.38529 | 2091 ft | 150 kts | 18° |
| 2026-05-04 05:17 | -18.46572 | -70.38184 | 1867 ft | 147 kts | 19° |
| 2026-05-04 05:17 | -18.45610 | -70.37835 | 1717 ft | 144 kts | 19° |
| 2026-05-04 05:17 | -18.44648 | -70.37486 | 1636 ft | 146 kts | 19° |
| 2026-05-04 05:18 | -18.43692 | -70.37132 | 1556 ft | 147 kts | 20° |
| 2026-05-04 05:18 | -18.42738 | -70.36774 | 1544 ft | 148 kts | 20° |
| 2026-05-04 05:18 | -18.41771 | -70.36413 | 1405 ft | 145 kts | 20° |
| 2026-05-04 05:18 | -18.40781 | -70.36051 | 1028 ft | 152 kts | 21° |
| 2026-05-04 05:19 | -18.39810 | -70.35699 | 728 ft | 146 kts | 21° |
| 2026-05-04 05:19 | -18.38872 | -70.35345 | 652 ft | 149 kts | 21° |
| 2026-05-04 05:19 | -18.37916 | -70.35000 | 484 ft | 141 kts | 21° |
| 2026-05-04 05:19 | -18.36973 | -70.34647 | 370 ft | 143 kts | 21° |
| 2026-05-04 05:20 | -18.36034 | -70.34311 | 212 ft | 143 kts | 21° |
| 2026-05-04 05:20 | -18.35135 | -70.33973 | 150 ft | 110 kts | 21° |
| 2026-05-04 05:20 | -18.34617 | -70.33786 | 157 ft | 64 kts | 19° |
| 2026-05-04 05:20 | -18.34288 | -70.33667 | 166 ft | 39 kts | 19° |
| 2026-05-04 05:21 | -18.34084 | -70.33595 | 171 ft | 24 kts | 20° |
| 2026-05-04 05:21 | -18.33960 | -70.33531 | 174 ft | 16 kts | 54° |
| 2026-05-04 05:21 | -18.33975 | -70.33447 | 175 ft | 9 kts | 123° |
| 2026-05-04 05:21 | -18.34013 | -70.33416 | 174 ft | 5 kts | 154° |
| 2026-05-04 05:22 | -18.34037 | -70.33410 | 174 ft | 2 kts | 170° |
| 2026-05-04 05:22 | -18.34051 | -70.33410 | 174 ft | 3 kts | 179° |
| 2026-05-04 05:22 | -18.34110 | -70.33422 | 172 ft | 14 kts | 197° |
| 2026-05-04 05:22 | -18.34211 | -70.33459 | 170 ft | 15 kts | 200° |
| 2026-05-04 05:23 | -18.34306 | -70.33496 | 168 ft | 14 kts | 200° |
| 2026-05-04 05:23 | -18.34397 | -70.33528 | 165 ft | 13 kts | 198° |
| 2026-05-04 05:23 | -18.34482 | -70.33558 | 164 ft | 13 kts | 199° |
| 2026-05-04 05:23 | -18.34564 | -70.33589 | 162 ft | 12 kts | 200° |
| 2026-05-04 05:24 | -18.34641 | -70.33618 | 160 ft | 11 kts | 200° |
| 2026-05-04 05:24 | -18.34714 | -70.33646 | 158 ft | 11 kts | 200° |
| 2026-05-04 05:24 | -18.34784 | -70.33672 | 157 ft | 10 kts | 199° |
| 2026-05-04 05:24 | -18.34848 | -70.33694 | 155 ft | 9 kts | 189° |
| 2026-05-04 05:25 | -18.34867 | -70.33677 | 155 ft | 2 kts | 135° |
| 2026-05-04 05:25 | -18.34877 | -70.33667 | 155 ft | 2 kts | 136° |
| 2026-05-04 05:25 | -18.34881 | -70.33662 | 155 ft | 0 kts | 131° |